sensor_id;sensor_type;location;lat;lon;timestamp;P1;durP1;ratioP1;P2;durP2;ratioP2
3052;SDS011;1536;51.098;6.414;2024-02-21T00:00:09;27.10;;;10.47;;
3052;SDS011;1536;51.098;6.414;2024-02-21T00:02:37;19.67;;;9.67;;
3052;SDS011;1536;51.098;6.414;2024-02-21T00:05:04;23.90;;;10.70;;
3052;SDS011;1536;51.098;6.414;2024-02-21T00:07:32;22.27;;;10.13;;
3052;SDS011;1536;51.098;6.414;2024-02-21T00:10:00;18.10;;;9.80;;
3052;SDS011;1536;51.098;6.414;2024-02-21T00:12:28;21.10;;;8.47;;
3052;SDS011;1536;51.098;6.414;2024-02-21T00:14:55;25.47;;;9.97;;
3052;SDS011;1536;51.098;6.414;2024-02-21T00:17:22;30.20;;;9.70;;
3052;SDS011;1536;51.098;6.414;2024-02-21T00:19:51;23.80;;;10.00;;
3052;SDS011;1536;51.098;6.414;2024-02-21T00:22:18;17.10;;;10.37;;
3052;SDS011;1536;51.098;6.414;2024-02-21T00:24:44;16.27;;;9.73;;
3052;SDS011;1536;51.098;6.414;2024-02-21T00:27:13;27.50;;;11.43;;
3052;SDS011;1536;51.098;6.414;2024-02-21T00:29:39;18.60;;;10.07;;
3052;SDS011;1536;51.098;6.414;2024-02-21T00:32:06;17.20;;;9.30;;
3052;SDS011;1536;51.098;6.414;2024-02-21T00:34:33;18.30;;;9.90;;
3052;SDS011;1536;51.098;6.414;2024-02-21T00:37:00;22.90;;;9.90;;
3052;SDS011;1536;51.098;6.414;2024-02-21T00:39:27;21.37;;;9.50;;
3052;SDS011;1536;51.098;6.414;2024-02-21T00:41:54;16.00;;;9.40;;
3052;SDS011;1536;51.098;6.414;2024-02-21T00:44:22;27.43;;;10.37;;
3052;SDS011;1536;51.098;6.414;2024-02-21T00:46:49;19.57;;;10.37;;
3052;SDS011;1536;51.098;6.414;2024-02-21T00:49:17;19.20;;;9.90;;
3052;SDS011;1536;51.098;6.414;2024-02-21T00:51:44;26.30;;;11.23;;
3052;SDS011;1536;51.098;6.414;2024-02-21T00:54:11;22.10;;;10.30;;
3052;SDS011;1536;51.098;6.414;2024-02-21T00:56:38;21.00;;;9.53;;
3052;SDS011;1536;51.098;6.414;2024-02-21T00:59:05;22.87;;;10.60;;
3052;SDS011;1536;51.098;6.414;2024-02-21T01:01:33;20.47;;;9.60;;
3052;SDS011;1536;51.098;6.414;2024-02-21T01:04:00;20.73;;;10.37;;
3052;SDS011;1536;51.098;6.414;2024-02-21T01:06:27;16.57;;;8.93;;
3052;SDS011;1536;51.098;6.414;2024-02-21T01:08:53;21.67;;;9.07;;
3052;SDS011;1536;51.098;6.414;2024-02-21T01:11:22;16.33;;;8.80;;
3052;SDS011;1536;51.098;6.414;2024-02-21T01:13:49;20.30;;;10.20;;
3052;SDS011;1536;51.098;6.414;2024-02-21T01:16:16;19.83;;;9.73;;
3052;SDS011;1536;51.098;6.414;2024-02-21T01:18:44;18.40;;;9.23;;
3052;SDS011;1536;51.098;6.414;2024-02-21T01:21:11;19.70;;;10.23;;
3052;SDS011;1536;51.098;6.414;2024-02-21T01:23:38;16.50;;;9.00;;
3052;SDS011;1536;51.098;6.414;2024-02-21T01:26:06;17.43;;;9.80;;
3052;SDS011;1536;51.098;6.414;2024-02-21T01:28:33;24.87;;;9.30;;
3052;SDS011;1536;51.098;6.414;2024-02-21T01:31:00;15.33;;;9.10;;
3052;SDS011;1536;51.098;6.414;2024-02-21T01:33:28;17.87;;;8.70;;
3052;SDS011;1536;51.098;6.414;2024-02-21T01:36:01;21.30;;;8.77;;
3052;SDS011;1536;51.098;6.414;2024-02-21T01:38:28;14.23;;;7.57;;
3052;SDS011;1536;51.098;6.414;2024-02-21T01:40:57;19.80;;;8.80;;
3052;SDS011;1536;51.098;6.414;2024-02-21T01:43:23;15.13;;;10.30;;
3052;SDS011;1536;51.098;6.414;2024-02-21T01:45:51;17.33;;;8.43;;
3052;SDS011;1536;51.098;6.414;2024-02-21T01:48:20;22.93;;;10.00;;
3052;SDS011;1536;51.098;6.414;2024-02-21T01:50:48;18.10;;;9.57;;
3052;SDS011;1536;51.098;6.414;2024-02-21T01:53:18;18.53;;;10.13;;
3052;SDS011;1536;51.098;6.414;2024-02-21T01:55:48;15.00;;;9.40;;
3052;SDS011;1536;51.098;6.414;2024-02-21T01:58:15;17.77;;;9.03;;
3052;SDS011;1536;51.098;6.414;2024-02-21T02:00:43;20.03;;;9.70;;
3052;SDS011;1536;51.098;6.414;2024-02-21T02:03:10;15.30;;;9.57;;
3052;SDS011;1536;51.098;6.414;2024-02-21T02:05:41;18.33;;;9.17;;
3052;SDS011;1536;51.098;6.414;2024-02-21T02:08:09;13.90;;;8.27;;
3052;SDS011;1536;51.098;6.414;2024-02-21T02:10:39;24.80;;;9.30;;
3052;SDS011;1536;51.098;6.414;2024-02-21T02:13:06;20.67;;;9.20;;
3052;SDS011;1536;51.098;6.414;2024-02-21T02:15:39;14.90;;;9.70;;
3052;SDS011;1536;51.098;6.414;2024-02-21T02:18:07;17.43;;;8.27;;
3052;SDS011;1536;51.098;6.414;2024-02-21T02:20:34;14.27;;;8.70;;
3052;SDS011;1536;51.098;6.414;2024-02-21T02:23:01;21.43;;;9.57;;
3052;SDS011;1536;51.098;6.414;2024-02-21T02:25:34;17.43;;;9.23;;
3052;SDS011;1536;51.098;6.414;2024-02-21T02:28:01;19.70;;;8.80;;
3052;SDS011;1536;51.098;6.414;2024-02-21T02:30:31;22.13;;;9.40;;
3052;SDS011;1536;51.098;6.414;2024-02-21T02:32:58;20.43;;;8.47;;
3052;SDS011;1536;51.098;6.414;2024-02-21T02:35:25;18.23;;;9.87;;
3052;SDS011;1536;51.098;6.414;2024-02-21T02:37:52;22.77;;;9.33;;
3052;SDS011;1536;51.098;6.414;2024-02-21T02:40:19;22.93;;;8.93;;
3052;SDS011;1536;51.098;6.414;2024-02-21T02:42:47;18.07;;;9.03;;
3052;SDS011;1536;51.098;6.414;2024-02-21T02:47:56;16.50;;;10.77;;
3052;SDS011;1536;51.098;6.414;2024-02-21T02:50:24;21.63;;;9.07;;
3052;SDS011;1536;51.098;6.414;2024-02-21T02:52:51;14.73;;;8.73;;
3052;SDS011;1536;51.098;6.414;2024-02-21T02:55:18;19.60;;;9.37;;
3052;SDS011;1536;51.098;6.414;2024-02-21T02:57:45;23.27;;;9.93;;
3052;SDS011;1536;51.098;6.414;2024-02-21T03:00:14;14.90;;;8.82;;
3052;SDS011;1536;51.098;6.414;2024-02-21T03:02:41;17.52;;;9.70;;
3052;SDS011;1536;51.098;6.414;2024-02-21T03:05:13;14.97;;;7.90;;
3052;SDS011;1536;51.098;6.414;2024-02-21T03:07:40;21.20;;;9.80;;
3052;SDS011;1536;51.098;6.414;2024-02-21T03:10:08;17.55;;;9.13;;
3052;SDS011;1536;51.098;6.414;2024-02-21T03:12:35;16.17;;;8.73;;
3052;SDS011;1536;51.098;6.414;2024-02-21T03:15:02;19.17;;;8.40;;
3052;SDS011;1536;51.098;6.414;2024-02-21T03:17:31;19.23;;;8.53;;
3052;SDS011;1536;51.098;6.414;2024-02-21T03:19:59;14.88;;;8.80;;
3052;SDS011;1536;51.098;6.414;2024-02-21T03:22:26;19.23;;;8.07;;
3052;SDS011;1536;51.098;6.414;2024-02-21T03:24:53;17.10;;;8.40;;
3052;SDS011;1536;51.098;6.414;2024-02-21T03:27:20;10.90;;;7.63;;
3052;SDS011;1536;51.098;6.414;2024-02-21T03:29:46;18.33;;;8.10;;
3052;SDS011;1536;51.098;6.414;2024-02-21T03:32:13;18.57;;;8.73;;
3052;SDS011;1536;51.098;6.414;2024-02-21T03:34:42;16.23;;;8.47;;
3052;SDS011;1536;51.098;6.414;2024-02-21T03:37:08;18.93;;;7.50;;
3052;SDS011;1536;51.098;6.414;2024-02-21T03:39:35;20.13;;;9.57;;
3052;SDS011;1536;51.098;6.414;2024-02-21T03:42:02;16.07;;;8.60;;
3052;SDS011;1536;51.098;6.414;2024-02-21T03:44:30;24.20;;;8.77;;
3052;SDS011;1536;51.098;6.414;2024-02-21T03:46:58;17.10;;;8.80;;
3052;SDS011;1536;51.098;6.414;2024-02-21T03:49:25;16.03;;;7.00;;
3052;SDS011;1536;51.098;6.414;2024-02-21T03:51:53;13.83;;;7.83;;
3052;SDS011;1536;51.098;6.414;2024-02-21T03:54:20;16.07;;;7.20;;
3052;SDS011;1536;51.098;6.414;2024-02-21T03:56:47;23.20;;;7.80;;
3052;SDS011;1536;51.098;6.414;2024-02-21T03:59:14;12.53;;;7.60;;
3052;SDS011;1536;51.098;6.414;2024-02-21T04:01:42;14.07;;;7.23;;
3052;SDS011;1536;51.098;6.414;2024-02-21T04:04:09;17.70;;;7.80;;
3052;SDS011;1536;51.098;6.414;2024-02-21T04:06:36;11.90;;;7.93;;
3052;SDS011;1536;51.098;6.414;2024-02-21T04:09:04;15.47;;;7.70;;
3052;SDS011;1536;51.098;6.414;2024-02-21T04:11:31;17.17;;;7.40;;
3052;SDS011;1536;51.098;6.414;2024-02-21T04:13:58;22.00;;;7.83;;
3052;SDS011;1536;51.098;6.414;2024-02-21T04:16:25;14.13;;;7.43;;
3052;SDS011;1536;51.098;6.414;2024-02-21T04:18:52;11.80;;;7.03;;
3052;SDS011;1536;51.098;6.414;2024-02-21T04:21:18;16.00;;;8.00;;
3052;SDS011;1536;51.098;6.414;2024-02-21T04:23:45;11.70;;;6.63;;
3052;SDS011;1536;51.098;6.414;2024-02-21T04:26:13;22.80;;;9.27;;
3052;SDS011;1536;51.098;6.414;2024-02-21T04:28:40;13.27;;;7.57;;
3052;SDS011;1536;51.098;6.414;2024-02-21T04:31:07;11.07;;;6.90;;
3052;SDS011;1536;51.098;6.414;2024-02-21T04:33:34;22.33;;;8.60;;
3052;SDS011;1536;51.098;6.414;2024-02-21T04:36:01;12.13;;;6.60;;
3052;SDS011;1536;51.098;6.414;2024-02-21T04:38:28;14.60;;;7.47;;
3052;SDS011;1536;51.098;6.414;2024-02-21T04:40:55;16.63;;;7.50;;
3052;SDS011;1536;51.098;6.414;2024-02-21T04:43:24;21.93;;;8.27;;
3052;SDS011;1536;51.098;6.414;2024-02-21T04:45:51;18.30;;;7.33;;
3052;SDS011;1536;51.098;6.414;2024-02-21T04:48:19;11.63;;;7.50;;
3052;SDS011;1536;51.098;6.414;2024-02-21T04:50:46;14.25;;;7.60;;
3052;SDS011;1536;51.098;6.414;2024-02-21T04:53:12;10.10;;;7.03;;
3052;SDS011;1536;51.098;6.414;2024-02-21T04:55:39;11.63;;;7.00;;
3052;SDS011;1536;51.098;6.414;2024-02-21T04:58:06;11.93;;;8.20;;
3052;SDS011;1536;51.098;6.414;2024-02-21T05:00:35;15.60;;;7.07;;
3052;SDS011;1536;51.098;6.414;2024-02-21T05:03:02;10.13;;;6.53;;
3052;SDS011;1536;51.098;6.414;2024-02-21T05:05:29;12.83;;;6.63;;
3052;SDS011;1536;51.098;6.414;2024-02-21T05:07:55;13.87;;;7.47;;
3052;SDS011;1536;51.098;6.414;2024-02-21T05:10:22;12.50;;;6.55;;
3052;SDS011;1536;51.098;6.414;2024-02-21T05:12:49;12.93;;;7.83;;
3052;SDS011;1536;51.098;6.414;2024-02-21T05:15:16;19.93;;;7.20;;
3052;SDS011;1536;51.098;6.414;2024-02-21T05:17:44;12.60;;;6.77;;
3052;SDS011;1536;51.098;6.414;2024-02-21T05:20:11;14.33;;;7.03;;
3052;SDS011;1536;51.098;6.414;2024-02-21T05:22:38;17.93;;;8.03;;
3052;SDS011;1536;51.098;6.414;2024-02-21T05:25:05;10.10;;;7.67;;
3052;SDS011;1536;51.098;6.414;2024-02-21T05:27:33;12.63;;;7.10;;
3052;SDS011;1536;51.098;6.414;2024-02-21T05:30:00;17.57;;;7.70;;
3052;SDS011;1536;51.098;6.414;2024-02-21T05:32:27;11.20;;;6.50;;
3052;SDS011;1536;51.098;6.414;2024-02-21T05:34:56;11.77;;;7.13;;
3052;SDS011;1536;51.098;6.414;2024-02-21T05:37:23;12.10;;;7.20;;
3052;SDS011;1536;51.098;6.414;2024-02-21T05:39:50;16.50;;;7.47;;
3052;SDS011;1536;51.098;6.414;2024-02-21T05:42:17;12.37;;;7.10;;
3052;SDS011;1536;51.098;6.414;2024-02-21T05:44:44;15.10;;;6.10;;
3052;SDS011;1536;51.098;6.414;2024-02-21T05:47:10;12.83;;;6.90;;
3052;SDS011;1536;51.098;6.414;2024-02-21T05:49:40;14.30;;;6.50;;
3052;SDS011;1536;51.098;6.414;2024-02-21T05:52:08;16.40;;;6.80;;
3052;SDS011;1536;51.098;6.414;2024-02-21T05:54:37;10.50;;;6.43;;
3052;SDS011;1536;51.098;6.414;2024-02-21T05:57:04;9.10;;;6.73;;
3052;SDS011;1536;51.098;6.414;2024-02-21T05:59:32;12.27;;;6.03;;
3052;SDS011;1536;51.098;6.414;2024-02-21T06:02:00;12.27;;;6.53;;
3052;SDS011;1536;51.098;6.414;2024-02-21T06:04:29;11.13;;;6.23;;
3052;SDS011;1536;51.098;6.414;2024-02-21T06:06:55;15.20;;;6.80;;
3052;SDS011;1536;51.098;6.414;2024-02-21T06:09:24;11.90;;;7.87;;
3052;SDS011;1536;51.098;6.414;2024-02-21T06:11:50;10.23;;;6.87;;
3052;SDS011;1536;51.098;6.414;2024-02-21T06:14:17;14.30;;;6.53;;
3052;SDS011;1536;51.098;6.414;2024-02-21T06:16:44;12.63;;;6.37;;
3052;SDS011;1536;51.098;6.414;2024-02-21T06:19:11;12.43;;;6.37;;
3052;SDS011;1536;51.098;6.414;2024-02-21T06:21:38;10.40;;;6.50;;
3052;SDS011;1536;51.098;6.414;2024-02-21T06:24:05;10.13;;;5.87;;
3052;SDS011;1536;51.098;6.414;2024-02-21T06:26:33;10.87;;;6.23;;
3052;SDS011;1536;51.098;6.414;2024-02-21T06:29:00;9.90;;;5.60;;
3052;SDS011;1536;51.098;6.414;2024-02-21T06:31:29;11.37;;;6.30;;
3052;SDS011;1536;51.098;6.414;2024-02-21T06:33:56;13.83;;;5.93;;
3052;SDS011;1536;51.098;6.414;2024-02-21T06:36:23;13.00;;;4.85;;
3052;SDS011;1536;51.098;6.414;2024-02-21T06:38:50;14.57;;;6.00;;
3052;SDS011;1536;51.098;6.414;2024-02-21T06:41:17;10.10;;;4.80;;
3052;SDS011;1536;51.098;6.414;2024-02-21T06:43:46;12.10;;;4.85;;
3052;SDS011;1536;51.098;6.414;2024-02-21T06:46:22;13.50;;;5.80;;
3052;SDS011;1536;51.098;6.414;2024-02-21T06:48:49;10.50;;;5.30;;
3052;SDS011;1536;51.098;6.414;2024-02-21T06:51:16;17.63;;;5.53;;
3052;SDS011;1536;51.098;6.414;2024-02-21T06:53:43;7.30;;;4.67;;
3052;SDS011;1536;51.098;6.414;2024-02-21T06:56:10;12.75;;;5.20;;
3052;SDS011;1536;51.098;6.414;2024-02-21T06:58:37;16.65;;;4.93;;
3052;SDS011;1536;51.098;6.414;2024-02-21T07:01:05;14.90;;;5.00;;
3052;SDS011;1536;51.098;6.414;2024-02-21T07:03:32;13.63;;;5.97;;
3052;SDS011;1536;51.098;6.414;2024-02-21T07:05:59;17.43;;;6.50;;
3052;SDS011;1536;51.098;6.414;2024-02-21T07:08:26;15.02;;;6.32;;
3052;SDS011;1536;51.098;6.414;2024-02-21T07:10:53;15.52;;;5.80;;
3052;SDS011;1536;51.098;6.414;2024-02-21T07:13:19;15.82;;;6.47;;
3052;SDS011;1536;51.098;6.414;2024-02-21T07:15:48;10.00;;;5.88;;
3052;SDS011;1536;51.098;6.414;2024-02-21T07:18:16;11.70;;;6.72;;
3052;SDS011;1536;51.098;6.414;2024-02-21T07:20:43;10.90;;;6.78;;
3052;SDS011;1536;51.098;6.414;2024-02-21T07:23:10;11.32;;;5.15;;
3052;SDS011;1536;51.098;6.414;2024-02-21T07:25:36;14.52;;;5.03;;
3052;SDS011;1536;51.098;6.414;2024-02-21T07:28:04;12.82;;;6.65;;
3052;SDS011;1536;51.098;6.414;2024-02-21T07:30:31;16.02;;;6.07;;
3052;SDS011;1536;51.098;6.414;2024-02-21T07:32:58;9.65;;;5.05;;
3052;SDS011;1536;51.098;6.414;2024-02-21T07:35:26;10.50;;;4.60;;
3052;SDS011;1536;51.098;6.414;2024-02-21T07:37:53;8.25;;;4.47;;
3052;SDS011;1536;51.098;6.414;2024-02-21T07:40:20;12.30;;;6.13;;
3052;SDS011;1536;51.098;6.414;2024-02-21T07:42:47;11.88;;;4.88;;
3052;SDS011;1536;51.098;6.414;2024-02-21T07:45:14;9.05;;;4.95;;
3052;SDS011;1536;51.098;6.414;2024-02-21T07:47:41;10.38;;;4.72;;
3052;SDS011;1536;51.098;6.414;2024-02-21T07:50:08;13.40;;;4.88;;
3052;SDS011;1536;51.098;6.414;2024-02-21T07:52:36;9.27;;;5.85;;
3052;SDS011;1536;51.098;6.414;2024-02-21T07:55:03;16.80;;;5.80;;
3052;SDS011;1536;51.098;6.414;2024-02-21T07:57:31;12.37;;;5.47;;
3052;SDS011;1536;51.098;6.414;2024-02-21T07:59:57;12.90;;;5.75;;
3052;SDS011;1536;51.098;6.414;2024-02-21T08:02:24;14.50;;;5.00;;
3052;SDS011;1536;51.098;6.414;2024-02-21T08:04:51;14.87;;;6.33;;
3052;SDS011;1536;51.098;6.414;2024-02-21T08:07:18;9.00;;;6.50;;
3052;SDS011;1536;51.098;6.414;2024-02-21T08:09:46;9.88;;;5.97;;
3052;SDS011;1536;51.098;6.414;2024-02-21T08:12:13;9.25;;;6.18;;
3052;SDS011;1536;51.098;6.414;2024-02-21T08:14:40;7.47;;;4.28;;
3052;SDS011;1536;51.098;6.414;2024-02-21T08:17:07;10.45;;;5.10;;
3052;SDS011;1536;51.098;6.414;2024-02-21T08:19:34;13.77;;;6.45;;
3052;SDS011;1536;51.098;6.414;2024-02-21T08:22:00;6.00;;;4.30;;
3052;SDS011;1536;51.098;6.414;2024-02-21T08:24:28;10.40;;;5.60;;
3052;SDS011;1536;51.098;6.414;2024-02-21T08:26:56;9.00;;;4.97;;
3052;SDS011;1536;51.098;6.414;2024-02-21T08:29:23;13.75;;;4.82;;
3052;SDS011;1536;51.098;6.414;2024-02-21T08:31:50;13.30;;;5.03;;
3052;SDS011;1536;51.098;6.414;2024-02-21T08:34:17;6.57;;;4.63;;
3052;SDS011;1536;51.098;6.414;2024-02-21T08:36:44;6.07;;;4.13;;
3052;SDS011;1536;51.098;6.414;2024-02-21T08:39:11;11.45;;;5.30;;
3052;SDS011;1536;51.098;6.414;2024-02-21T08:41:41;16.73;;;5.18;;
3052;SDS011;1536;51.098;6.414;2024-02-21T08:44:10;11.20;;;4.90;;
3052;SDS011;1536;51.098;6.414;2024-02-21T08:46:36;9.20;;;4.70;;
3052;SDS011;1536;51.098;6.414;2024-02-21T08:49:05;13.18;;;4.15;;
3052;SDS011;1536;51.098;6.414;2024-02-21T08:51:32;9.38;;;3.85;;
3052;SDS011;1536;51.098;6.414;2024-02-21T08:53:58;7.70;;;3.90;;
3052;SDS011;1536;51.098;6.414;2024-02-21T08:56:26;8.48;;;5.28;;
3052;SDS011;1536;51.098;6.414;2024-02-21T08:58:53;8.03;;;4.50;;
3052;SDS011;1536;51.098;6.414;2024-02-21T09:01:21;7.70;;;3.93;;
3052;SDS011;1536;51.098;6.414;2024-02-21T09:03:48;9.98;;;3.88;;
3052;SDS011;1536;51.098;6.414;2024-02-21T09:06:18;10.83;;;3.93;;
3052;SDS011;1536;51.098;6.414;2024-02-21T09:08:46;6.97;;;4.30;;
3052;SDS011;1536;51.098;6.414;2024-02-21T09:11:12;7.30;;;3.87;;
3052;SDS011;1536;51.098;6.414;2024-02-21T09:13:40;8.10;;;3.60;;
3052;SDS011;1536;51.098;6.414;2024-02-21T09:16:06;7.18;;;3.47;;
3052;SDS011;1536;51.098;6.414;2024-02-21T09:18:35;8.00;;;3.20;;
3052;SDS011;1536;51.098;6.414;2024-02-21T09:21:02;7.77;;;4.07;;
3052;SDS011;1536;51.098;6.414;2024-02-21T09:23:29;12.05;;;5.22;;
3052;SDS011;1536;51.098;6.414;2024-02-21T09:25:56;7.17;;;3.93;;
3052;SDS011;1536;51.098;6.414;2024-02-21T09:28:25;7.27;;;3.70;;
3052;SDS011;1536;51.098;6.414;2024-02-21T09:30:52;8.88;;;4.10;;
3052;SDS011;1536;51.098;6.414;2024-02-21T09:33:19;11.37;;;4.23;;
3052;SDS011;1536;51.098;6.414;2024-02-21T09:35:47;7.47;;;4.05;;
3052;SDS011;1536;51.098;6.414;2024-02-21T09:38:14;5.53;;;2.90;;
3052;SDS011;1536;51.098;6.414;2024-02-21T09:40:41;9.97;;;4.03;;
3052;SDS011;1536;51.098;6.414;2024-02-21T09:43:08;10.73;;;4.20;;
3052;SDS011;1536;51.098;6.414;2024-02-21T09:45:35;8.63;;;4.30;;
3052;SDS011;1536;51.098;6.414;2024-02-21T09:48:09;7.90;;;3.27;;
3052;SDS011;1536;51.098;6.414;2024-02-21T09:50:45;7.43;;;3.58;;
3052;SDS011;1536;51.098;6.414;2024-02-21T09:53:15;8.10;;;3.80;;
3052;SDS011;1536;51.098;6.414;2024-02-21T09:55:43;6.93;;;3.43;;
3052;SDS011;1536;51.098;6.414;2024-02-21T09:58:11;9.23;;;2.93;;
3052;SDS011;1536;51.098;6.414;2024-02-21T10:00:38;5.00;;;3.23;;
3052;SDS011;1536;51.098;6.414;2024-02-21T10:03:05;5.00;;;3.30;;
3052;SDS011;1536;51.098;6.414;2024-02-21T10:05:35;6.47;;;3.30;;
3052;SDS011;1536;51.098;6.414;2024-02-21T10:08:04;7.30;;;3.80;;
3052;SDS011;1536;51.098;6.414;2024-02-21T10:10:40;5.90;;;3.20;;
3052;SDS011;1536;51.098;6.414;2024-02-21T10:13:09;6.30;;;3.50;;
3052;SDS011;1536;51.098;6.414;2024-02-21T10:15:36;7.30;;;3.40;;
3052;SDS011;1536;51.098;6.414;2024-02-21T10:18:03;7.30;;;3.47;;
3052;SDS011;1536;51.098;6.414;2024-02-21T10:20:31;5.97;;;3.43;;
3052;SDS011;1536;51.098;6.414;2024-02-21T10:23:01;10.60;;;3.40;;
3052;SDS011;1536;51.098;6.414;2024-02-21T10:25:33;7.17;;;3.50;;
3052;SDS011;1536;51.098;6.414;2024-02-21T10:28:00;7.47;;;3.57;;
3052;SDS011;1536;51.098;6.414;2024-02-21T10:30:28;7.93;;;3.53;;
3052;SDS011;1536;51.098;6.414;2024-02-21T10:32:55;5.57;;;3.50;;
3052;SDS011;1536;51.098;6.414;2024-02-21T10:35:25;9.07;;;3.30;;
3052;SDS011;1536;51.098;6.414;2024-02-21T10:37:54;11.90;;;3.83;;
3052;SDS011;1536;51.098;6.414;2024-02-21T10:40:23;8.93;;;3.93;;
3052;SDS011;1536;51.098;6.414;2024-02-21T10:42:52;8.03;;;3.83;;
3052;SDS011;1536;51.098;6.414;2024-02-21T10:45:24;4.43;;;3.07;;
3052;SDS011;1536;51.098;6.414;2024-02-21T10:47:56;8.60;;;4.17;;
3052;SDS011;1536;51.098;6.414;2024-02-21T10:50:36;7.13;;;3.70;;
3052;SDS011;1536;51.098;6.414;2024-02-21T10:53:12;6.20;;;2.90;;
3052;SDS011;1536;51.098;6.414;2024-02-21T10:55:53;11.53;;;3.83;;
3052;SDS011;1536;51.098;6.414;2024-02-21T10:58:27;9.67;;;3.83;;
3052;SDS011;1536;51.098;6.414;2024-02-21T11:00:56;9.73;;;3.57;;
3052;SDS011;1536;51.098;6.414;2024-02-21T11:03:23;9.73;;;3.83;;
3052;SDS011;1536;51.098;6.414;2024-02-21T11:05:50;9.63;;;4.80;;
3052;SDS011;1536;51.098;6.414;2024-02-21T11:08:18;9.17;;;3.83;;
3052;SDS011;1536;51.098;6.414;2024-02-21T11:10:45;8.70;;;4.87;;
3052;SDS011;1536;51.098;6.414;2024-02-21T11:13:14;8.07;;;3.27;;
3052;SDS011;1536;51.098;6.414;2024-02-21T11:15:41;6.90;;;3.70;;
3052;SDS011;1536;51.098;6.414;2024-02-21T11:18:07;5.00;;;3.47;;
3052;SDS011;1536;51.098;6.414;2024-02-21T11:20:35;3.97;;;2.80;;
3052;SDS011;1536;51.098;6.414;2024-02-21T11:23:03;8.97;;;3.57;;
3052;SDS011;1536;51.098;6.414;2024-02-21T11:25:30;10.50;;;6.47;;
3052;SDS011;1536;51.098;6.414;2024-02-21T11:27:59;4.53;;;3.40;;
3052;SDS011;1536;51.098;6.414;2024-02-21T11:30:29;11.73;;;3.90;;
3052;SDS011;1536;51.098;6.414;2024-02-21T11:33:00;9.97;;;3.93;;
3052;SDS011;1536;51.098;6.414;2024-02-21T11:35:30;6.60;;;2.97;;
3052;SDS011;1536;51.098;6.414;2024-02-21T11:38:07;3.67;;;2.87;;
3052;SDS011;1536;51.098;6.414;2024-02-21T11:40:35;5.00;;;3.10;;
3052;SDS011;1536;51.098;6.414;2024-02-21T11:43:04;5.47;;;3.40;;
3052;SDS011;1536;51.098;6.414;2024-02-21T11:45:32;6.13;;;3.63;;
3052;SDS011;1536;51.098;6.414;2024-02-21T11:47:59;6.63;;;3.30;;
3052;SDS011;1536;51.098;6.414;2024-02-21T11:50:28;7.50;;;3.73;;
3052;SDS011;1536;51.098;6.414;2024-02-21T11:52:58;6.63;;;3.00;;
3052;SDS011;1536;51.098;6.414;2024-02-21T11:55:25;4.97;;;3.00;;
3052;SDS011;1536;51.098;6.414;2024-02-21T11:57:52;6.17;;;3.40;;
3052;SDS011;1536;51.098;6.414;2024-02-21T12:00:19;6.40;;;3.10;;
3052;SDS011;1536;51.098;6.414;2024-02-21T12:02:48;10.70;;;3.37;;
3052;SDS011;1536;51.098;6.414;2024-02-21T12:05:16;5.07;;;3.30;;
3052;SDS011;1536;51.098;6.414;2024-02-21T12:07:45;12.03;;;2.87;;
3052;SDS011;1536;51.098;6.414;2024-02-21T12:10:12;8.60;;;3.43;;
3052;SDS011;1536;51.098;6.414;2024-02-21T12:12:41;4.40;;;2.67;;
3052;SDS011;1536;51.098;6.414;2024-02-21T12:15:08;7.07;;;3.57;;
3052;SDS011;1536;51.098;6.414;2024-02-21T12:17:35;12.57;;;3.27;;
3052;SDS011;1536;51.098;6.414;2024-02-21T12:20:03;7.67;;;3.47;;
3052;SDS011;1536;51.098;6.414;2024-02-21T12:22:33;8.57;;;3.07;;
3052;SDS011;1536;51.098;6.414;2024-02-21T12:25:02;6.20;;;3.20;;
3052;SDS011;1536;51.098;6.414;2024-02-21T12:27:32;8.53;;;3.37;;
3052;SDS011;1536;51.098;6.414;2024-02-21T12:29:59;4.37;;;3.20;;
3052;SDS011;1536;51.098;6.414;2024-02-21T12:32:26;5.60;;;3.20;;
3052;SDS011;1536;51.098;6.414;2024-02-21T12:34:53;11.80;;;4.10;;
3052;SDS011;1536;51.098;6.414;2024-02-21T12:37:22;8.63;;;2.97;;
3052;SDS011;1536;51.098;6.414;2024-02-21T12:39:50;5.93;;;2.93;;
3052;SDS011;1536;51.098;6.414;2024-02-21T12:42:17;6.47;;;3.03;;
3052;SDS011;1536;51.098;6.414;2024-02-21T12:44:44;9.33;;;2.83;;
3052;SDS011;1536;51.098;6.414;2024-02-21T12:47:11;9.40;;;2.87;;
3052;SDS011;1536;51.098;6.414;2024-02-21T12:49:38;3.73;;;2.80;;
3052;SDS011;1536;51.098;6.414;2024-02-21T12:52:05;7.17;;;2.57;;
3052;SDS011;1536;51.098;6.414;2024-02-21T12:54:33;10.40;;;2.90;;
3052;SDS011;1536;51.098;6.414;2024-02-21T12:57:00;5.83;;;2.90;;
3052;SDS011;1536;51.098;6.414;2024-02-21T12:59:28;5.00;;;2.90;;
3052;SDS011;1536;51.098;6.414;2024-02-21T13:01:55;6.57;;;2.60;;
3052;SDS011;1536;51.098;6.414;2024-02-21T13:04:22;4.90;;;2.80;;
3052;SDS011;1536;51.098;6.414;2024-02-21T13:06:49;5.10;;;2.70;;
3052;SDS011;1536;51.098;6.414;2024-02-21T13:09:16;4.27;;;2.53;;
3052;SDS011;1536;51.098;6.414;2024-02-21T13:11:44;7.10;;;2.70;;
3052;SDS011;1536;51.098;6.414;2024-02-21T13:14:11;7.33;;;3.30;;
3052;SDS011;1536;51.098;6.414;2024-02-21T13:16:38;5.67;;;2.63;;
3052;SDS011;1536;51.098;6.414;2024-02-21T13:19:05;10.83;;;2.90;;
3052;SDS011;1536;51.098;6.414;2024-02-21T13:21:33;7.93;;;2.80;;
3052;SDS011;1536;51.098;6.414;2024-02-21T13:24:00;5.33;;;2.77;;
3052;SDS011;1536;51.098;6.414;2024-02-21T13:26:27;5.50;;;2.70;;
3052;SDS011;1536;51.098;6.414;2024-02-21T13:28:55;7.90;;;3.27;;
3052;SDS011;1536;51.098;6.414;2024-02-21T13:31:22;7.93;;;3.23;;
3052;SDS011;1536;51.098;6.414;2024-02-21T13:33:50;4.30;;;2.70;;
3052;SDS011;1536;51.098;6.414;2024-02-21T13:36:17;5.30;;;2.60;;
3052;SDS011;1536;51.098;6.414;2024-02-21T13:38:44;7.37;;;3.73;;
3052;SDS011;1536;51.098;6.414;2024-02-21T13:41:12;7.60;;;3.60;;
3052;SDS011;1536;51.098;6.414;2024-02-21T13:43:41;6.93;;;3.10;;
3052;SDS011;1536;51.098;6.414;2024-02-21T13:46:37;4.83;;;2.70;;
3052;SDS011;1536;51.098;6.414;2024-02-21T13:49:04;7.50;;;2.77;;
3052;SDS011;1536;51.098;6.414;2024-02-21T13:51:32;10.33;;;3.33;;
3052;SDS011;1536;51.098;6.414;2024-02-21T13:54:01;7.93;;;3.37;;
3052;SDS011;1536;51.098;6.414;2024-02-21T13:56:28;6.07;;;4.00;;
3052;SDS011;1536;51.098;6.414;2024-02-21T13:58:55;5.57;;;2.90;;
3052;SDS011;1536;51.098;6.414;2024-02-21T14:01:22;6.20;;;3.90;;
3052;SDS011;1536;51.098;6.414;2024-02-21T14:03:50;8.33;;;3.37;;
3052;SDS011;1536;51.098;6.414;2024-02-21T14:06:16;8.20;;;3.50;;
3052;SDS011;1536;51.098;6.414;2024-02-21T14:08:43;4.27;;;3.00;;
3052;SDS011;1536;51.098;6.414;2024-02-21T14:11:11;3.77;;;2.87;;
3052;SDS011;1536;51.098;6.414;2024-02-21T14:13:39;5.00;;;3.10;;
3052;SDS011;1536;51.098;6.414;2024-02-21T14:16:09;9.07;;;3.40;;
3052;SDS011;1536;51.098;6.414;2024-02-21T14:18:38;10.83;;;4.10;;
3052;SDS011;1536;51.098;6.414;2024-02-21T14:21:07;5.13;;;3.07;;
3052;SDS011;1536;51.098;6.414;2024-02-21T14:23:35;9.30;;;3.30;;
3052;SDS011;1536;51.098;6.414;2024-02-21T14:26:02;4.80;;;3.13;;
3052;SDS011;1536;51.098;6.414;2024-02-21T14:28:30;7.50;;;3.33;;
3052;SDS011;1536;51.098;6.414;2024-02-21T14:30:58;5.23;;;2.77;;
3052;SDS011;1536;51.098;6.414;2024-02-21T14:33:25;11.90;;;3.63;;
3052;SDS011;1536;51.098;6.414;2024-02-21T14:35:52;6.67;;;2.70;;
3052;SDS011;1536;51.098;6.414;2024-02-21T14:38:21;6.83;;;3.37;;
3052;SDS011;1536;51.098;6.414;2024-02-21T14:40:48;8.07;;;3.73;;
3052;SDS011;1536;51.098;6.414;2024-02-21T14:43:15;9.73;;;3.80;;
3052;SDS011;1536;51.098;6.414;2024-02-21T14:45:43;17.00;;;4.40;;
3052;SDS011;1536;51.098;6.414;2024-02-21T14:48:12;4.53;;;3.37;;
3052;SDS011;1536;51.098;6.414;2024-02-21T14:50:39;5.03;;;3.10;;
3052;SDS011;1536;51.098;6.414;2024-02-21T14:53:06;4.30;;;2.80;;
3052;SDS011;1536;51.098;6.414;2024-02-21T14:55:35;6.50;;;3.10;;
3052;SDS011;1536;51.098;6.414;2024-02-21T14:58:05;4.33;;;3.17;;
3052;SDS011;1536;51.098;6.414;2024-02-21T15:00:32;5.57;;;3.20;;
3052;SDS011;1536;51.098;6.414;2024-02-21T15:02:59;5.73;;;3.07;;
3052;SDS011;1536;51.098;6.414;2024-02-21T15:05:26;8.90;;;3.27;;
3052;SDS011;1536;51.098;6.414;2024-02-21T15:07:55;7.50;;;2.77;;
3052;SDS011;1536;51.098;6.414;2024-02-21T15:10:22;6.20;;;2.83;;